Time;durP1;ratioP1;P1;durP2;ratioP2;P2;SDS_P1;SDS_P2;PMS_P1;PMS_P2;Temp;Humidity;BMP_temperature;BMP_pressure;BME280_temperature;BME280_humidity;BME280_pressure;Samples;Min_cycle;Max_cycle;Signal;HPM_P1;HPM_P2
2021/06/12 00:00:41;;;;;;;20.15;12.85;;;20.90;52.00;;;;;;4975808;28;20387;-77
2021/06/12 00:03:06;;;;;;;23.00;13.30;;;21.00;50.70;;;;;;4991658;28;20460;-77
2021/06/12 00:05:32;;;;;;;22.90;13.70;;;21.00;50.50;;;;;;4992055;28;20409;-77
2021/06/12 00:07:58;;;;;;;25.90;13.00;;;21.00;51.40;;;;;;4993585;28;20416;-76
2021/06/12 00:10:31;;;;;;;18.55;11.68;;;20.90;51.50;;;;;;4980231;28;20399;-76
2021/06/12 00:12:56;;;;;;;17.75;11.68;;;20.70;52.10;;;;;;4992453;28;20880;-77
2021/06/12 00:15:23;;;;;;;18.80;12.20;;;20.70;52.60;;;;;;4991438;28;20425;-77
2021/06/12 00:17:49;;;;;;;21.00;12.02;;;20.60;53.90;;;;;;4993065;28;20867;-77
2021/06/12 00:20:18;;;;;;;19.38;12.10;;;20.50;54.00;;;;;;4992942;28;20448;-77
2021/06/12 00:22:44;;;;;;;15.98;11.10;;;20.40;54.50;;;;;;4992481;28;20433;-77
2021/06/12 00:25:13;;;;;;;20.83;12.23;;;20.20;54.90;;;;;;4992458;28;20426;-77
2021/06/12 00:27:39;;;;;;;19.23;11.20;;;20.20;55.80;;;;;;4992544;28;20386;-76
2021/06/12 00:30:07;;;;;;;19.10;10.30;;;20.10;55.80;;;;;;4991197;28;20434;-75
2021/06/12 00:32:33;;;;;;;16.17;10.32;;;20.10;56.20;;;;;;4992178;28;20397;-76
2021/06/12 00:34:58;;;;;;;17.40;10.40;;;20.00;56.60;;;;;;4992234;28;20414;-75
2021/06/12 00:37:24;;;;;;;17.50;10.33;;;20.00;56.90;;;;;;4991333;28;20401;-76
2021/06/12 00:39:49;;;;;;;16.75;10.10;;;20.00;57.20;;;;;;4992246;28;20911;-76
2021/06/12 00:42:15;;;;;;;19.07;11.40;;;20.00;57.00;;;;;;4990870;28;20461;-76
2021/06/12 00:44:41;;;;;;;29.60;10.80;;;20.00;57.40;;;;;;4990975;28;20403;-75
2021/06/12 00:47:07;;;;;;;17.93;10.50;;;20.00;57.30;;;;;;4992928;28;20390;-77
2021/06/12 00:49:33;;;;;;;18.60;10.47;;;20.10;56.70;;;;;;4993104;28;20910;-76
2021/06/12 00:51:58;;;;;;;15.68;10.20;;;20.10;56.00;;;;;;4992430;28;20887;-77
2021/06/12 00:54:24;;;;;;;20.10;10.47;;;20.10;56.30;;;;;;4994030;28;20418;-77
2021/06/12 00:56:50;;;;;;;20.83;11.93;;;19.90;57.60;;;;;;4994012;28;20393;-76
2021/06/12 00:59:16;;;;;;;24.37;12.90;;;19.90;58.70;;;;;;4993946;28;20554;-76
2021/06/12 01:01:42;;;;;;;17.70;11.40;;;19.80;59.80;;;;;;4992034;28;20923;-77
2021/06/12 01:04:08;;;;;;;20.87;12.30;;;19.70;60.30;;;;;;4991837;28;20377;-76
2021/06/12 01:06:34;;;;;;;17.15;11.93;;;19.90;59.50;;;;;;4991637;28;20486;-76
2021/06/12 01:08:59;;;;;;;16.80;11.23;;;20.10;58.00;;;;;;4971273;28;20404;-77
2021/06/12 01:11:25;;;;;;;19.40;12.10;;;20.20;57.60;;;;;;4979420;28;20541;-75
2021/06/12 01:14:01;;;;;;;18.23;11.90;;;20.40;56.30;;;;;;4991522;28;20467;-75
2021/06/12 01:16:42;;;;;;;19.52;13.05;;;20.30;56.20;;;;;;4991561;28;20473;-76
2021/06/12 01:19:38;;;;;;;23.50;13.77;;;20.30;56.70;;;;;;4991708;28;20419;-76
2021/06/12 01:22:12;;;;;;;21.85;13.40;;;20.20;57.20;;;;;;4990766;28;20493;-77
2021/06/12 01:24:55;;;;;;;20.77;12.40;;;20.30;57.30;;;;;;4991365;28;20887;-77
2021/06/12 01:27:23;;;;;;;21.10;13.73;;;20.30;57.20;;;;;;4991675;28;20391;-76
2021/06/12 01:30:15;;;;;;;22.55;13.50;;;20.30;57.10;;;;;;4991251;28;20962;-76
2021/06/12 01:32:52;;;;;;;20.52;13.60;;;20.30;57.20;;;;;;4984299;28;20479;-76
2021/06/12 01:35:25;;;;;;;24.67;14.43;;;20.20;57.90;;;;;;4979139;28;20493;-76
2021/06/12 01:37:53;;;;;;;25.52;14.90;;;20.20;58.50;;;;;;4990778;28;20411;-77
2021/06/12 01:40:23;;;;;;;25.00;14.50;;;20.20;58.90;;;;;;4989739;28;20383;-76
2021/06/12 01:42:52;;;;;;;25.60;14.95;;;20.40;57.40;;;;;;4991148;28;20386;-75
2021/06/12 01:45:17;;;;;;;26.90;15.80;;;20.40;57.30;;;;;;4991239;28;20420;-76
2021/06/12 01:47:44;;;;;;;34.95;16.17;;;20.40;57.60;;;;;;4991197;28;20394;-77
2021/06/12 01:50:12;;;;;;;27.13;14.25;;;20.20;58.60;;;;;;4990998;28;20406;-77
2021/06/12 01:52:39;;;;;;;22.50;13.65;;;20.20;58.40;;;;;;4990876;28;20402;-77
2021/06/12 01:55:06;;;;;;;26.08;15.27;;;20.10;59.60;;;;;;4991119;28;20414;-77
2021/06/12 01:57:33;;;;;;;23.08;14.40;;;20.10;59.70;;;;;;4974509;28;20401;-77
2021/06/12 02:00:00;;;;;;;27.80;14.90;;;20.10;59.80;;;;;;4997964;28;20760;-75
2021/06/12 02:02:26;;;;;;;24.70;14.45;;;20.30;58.40;;;;;;4979527;28;20794;-78
2021/06/12 02:04:52;;;;;;;23.85;13.95;;;20.30;57.60;;;;;;4994345;28;20583;-75
2021/06/12 02:07:19;;;;;;;23.65;14.07;;;20.30;57.20;;;;;;4990440;28;20395;-77
2021/06/12 02:09:47;;;;;;;22.88;13.10;;;20.30;58.00;;;;;;4976552;28;20403;-76
2021/06/12 02:12:14;;;;;;;22.42;13.70;;;20.30;57.80;;;;;;4987316;28;20405;-78
2021/06/12 02:14:41;;;;;;;23.65;13.35;;;20.10;58.50;;;;;;4992740;28;20942;-77
2021/06/12 02:17:07;;;;;;;17.75;12.07;;;20.10;58.80;;;;;;4992637;28;20472;-76
2021/06/12 02:19:36;;;;;;;21.23;12.82;;;20.10;58.80;;;;;;4992854;28;20437;-76
2021/06/12 02:22:02;;;;;;;21.73;13.45;;;20.10;59.10;;;;;;4992909;28;20390;-76
2021/06/12 02:24:29;;;;;;;21.17;11.70;;;20.00;58.80;;;;;;4992718;28;20389;-76
2021/06/12 02:26:55;;;;;;;23.00;12.65;;;20.00;59.10;;;;;;4991654;28;20933;-75
2021/06/12 02:29:23;;;;;;;22.23;12.60;;;19.90;59.50;;;;;;4990943;28;20822;-74
2021/06/12 02:31:53;;;;;;;23.42;13.70;;;19.90;60.00;;;;;;4989264;28;20387;-74
2021/06/12 02:34:18;;;;;;;22.03;12.40;;;19.90;60.30;;;;;;4992088;28;20412;-75
2021/06/12 02:36:45;;;;;;;18.53;11.40;;;20.00;59.90;;;;;;4994276;28;20386;-76
2021/06/12 02:39:11;;;;;;;19.40;10.67;;;20.00;59.20;;;;;;4994412;28;20890;-76
2021/06/12 02:41:37;;;;;;;17.85;9.90;;;20.00;59.20;;;;;;4994026;28;20383;-76
2021/06/12 02:44:04;;;;;;;16.40;10.40;;;20.00;59.40;;;;;;4994180;28;20397;-76
2021/06/12 02:46:32;;;;;;;16.10;9.80;;;19.90;59.60;;;;;;4993836;28;20402;-75
2021/06/12 02:49:04;;;;;;;18.08;10.63;;;19.90;59.20;;;;;;4994089;28;20747;-76
2021/06/12 02:51:34;;;;;;;18.80;9.73;;;19.90;59.80;;;;;;5009176;22;20383;-79
2021/06/12 02:53:59;;;;;;;18.70;9.60;;;19.90;59.30;;;;;;5005371;28;20420;-77
2021/06/12 02:56:26;;;;;;;16.30;9.37;;;20.00;58.90;;;;;;5002465;28;20398;-78
2021/06/12 02:59:00;;;;;;;14.63;8.82;;;20.00;58.50;;;;;;5000354;28;20432;-79
2021/06/12 03:01:28;;;;;;;17.13;9.93;;;19.90;58.90;;;;;;4998158;28;20398;-79
2021/06/12 03:03:55;;;;;;;17.50;10.00;;;19.90;59.30;;;;;;5000277;28;20401;-79
2021/06/12 03:06:22;;;;;;;19.48;9.90;;;19.80;60.00;;;;;;5000559;28;20403;-79
2021/06/12 03:08:51;;;;;;;15.20;9.63;;;19.90;59.70;;;;;;4992027;28;20408;-79
2021/06/12 03:11:18;;;;;;;16.92;9.90;;;19.90;59.40;;;;;;4986289;28;20421;-79
2021/06/12 03:13:46;;;;;;;17.03;10.07;;;19.80;59.20;;;;;;4998493;28;20511;-78
2021/06/12 03:16:14;;;;;;;18.63;9.13;;;19.80;60.00;;;;;;4997235;28;20453;-78
2021/06/12 03:18:46;;;;;;;16.75;9.15;;;19.70;61.00;;;;;;4997699;28;20399;-77
2021/06/12 03:21:12;;;;;;;16.70;9.40;;;19.70;61.20;;;;;;5000303;28;20395;-77
2021/06/12 03:23:39;;;;;;;15.07;8.93;;;19.60;61.40;;;;;;5004135;28;20402;-76
2021/06/12 03:26:07;;;;;;;18.70;9.95;;;19.80;60.10;;;;;;5002690;28;20437;-79
2021/06/12 03:28:33;;;;;;;16.15;8.45;;;19.90;58.90;;;;;;5004224;28;20405;-78
2021/06/12 03:31:02;;;;;;;18.65;9.30;;;19.90;59.40;;;;;;5003754;28;20406;-78
2021/06/12 03:33:28;;;;;;;15.52;8.90;;;20.00;58.60;;;;;;5000350;28;20395;-77
2021/06/12 03:35:55;;;;;;;14.18;8.70;;;19.90;59.50;;;;;;4980899;28;20390;-79
2021/06/12 03:38:21;;;;;;;15.20;9.20;;;19.80;59.40;;;;;;4997512;28;20387;-78
2021/06/12 03:40:47;;;;;;;18.25;9.48;;;19.70;60.10;;;;;;5001228;28;20412;-79
2021/06/12 03:43:14;;;;;;;14.32;8.95;;;19.60;61.50;;;;;;4992765;28;20391;-78
2021/06/12 03:45:42;;;;;;;17.67;9.00;;;19.60;61.60;;;;;;4996491;28;20394;-78
2021/06/12 03:48:09;;;;;;;24.50;9.50;;;19.70;61.00;;;;;;4997607;28;20390;-79
2021/06/12 03:50:37;;;;;;;16.23;9.07;;;19.70;61.20;;;;;;4995562;28;20990;-79
2021/06/12 03:53:04;;;;;;;14.07;8.75;;;19.60;62.00;;;;;;4995559;28;20424;-78
2021/06/12 03:55:31;;;;;;;15.30;9.47;;;19.70;61.80;;;;;;4997259;28;20417;-79
2021/06/12 03:57:56;;;;;;;18.00;9.82;;;19.60;62.20;;;;;;4998023;28;20390;-78
2021/06/12 04:00:22;;;;;;;19.70;9.47;;;19.60;62.60;;;;;;4998187;28;20510;-79
2021/06/12 04:02:48;;;;;;;12.97;8.60;;;19.60;62.90;;;;;;4998284;28;21025;-76
2021/06/12 04:05:14;;;;;;;18.17;9.35;;;19.60;62.30;;;;;;4984128;28;20875;-79
2021/06/12 04:07:40;;;;;;;16.40;9.40;;;19.80;61.50;;;;;;4998025;28;20469;-79
2021/06/12 04:10:08;;;;;;;17.67;9.80;;;19.80;61.80;;;;;;4989249;28;20546;-78
2021/06/12 04:12:33;;;;;;;22.27;10.48;;;19.70;62.50;;;;;;4986686;28;20389;-80
2021/06/12 04:14:59;;;;;;;13.93;9.90;;;19.60;62.90;;;;;;4982627;28;20424;-79
2021/06/12 04:17:25;;;;;;;14.80;9.83;;;19.60;63.70;;;;;;4986642;28;20432;-79
2021/06/12 04:19:50;;;;;;;17.50;10.25;;;19.60;64.40;;;;;;4992919;28;20392;-77
2021/06/12 04:22:16;;;;;;;14.55;9.80;;;19.60;64.30;;;;;;4993576;28;20477;-79
2021/06/12 04:24:42;;;;;;;14.67;9.37;;;19.70;63.60;;;;;;5000791;28;20471;-79
2021/06/12 04:27:07;;;;;;;15.33;10.10;;;19.60;64.50;;;;;;4995850;28;20409;-79
2021/06/12 04:29:33;;;;;;;22.02;10.65;;;19.70;64.30;;;;;;4995874;28;20390;-79
2021/06/12 04:31:59;;;;;;;19.23;10.80;;;19.80;63.70;;;;;;4995356;28;20387;-78
2021/06/12 04:34:25;;;;;;;18.35;10.77;;;19.80;63.90;;;;;;4995607;28;20422;-78
2021/06/12 04:36:50;;;;;;;19.08;11.30;;;19.70;64.70;;;;;;4995851;28;20478;-78
2021/06/12 04:39:17;;;;;;;21.70;11.60;;;19.60;64.90;;;;;;4995638;28;20839;-78
2021/06/12 04:41:43;;;;;;;28.30;11.60;;;19.80;64.30;;;;;;4995241;28;20472;-78
2021/06/12 04:44:08;;;;;;;21.80;11.80;;;19.90;62.80;;;;;;4996181;28;20437;-80
2021/06/12 04:46:34;;;;;;;18.87;11.60;;;19.80;63.40;;;;;;5006312;28;20390;-78
2021/06/12 04:48:59;;;;;;;22.23;11.90;;;19.80;63.80;;;;;;5010496;28;20409;-80
2021/06/12 04:51:25;;;;;;;20.27;12.10;;;20.00;63.30;;;;;;5009376;28;20837;-80
2021/06/12 04:53:51;;;;;;;23.83;12.07;;;20.30;60.70;;;;;;5007714;28;20426;-83
2021/06/12 04:56:17;;;;;;;22.50;11.93;;;20.20;60.50;;;;;;5012619;28;20409;-82
2021/06/12 04:58:42;;;;;;;21.70;12.00;;;20.20;61.00;;;;;;5010809;28;20394;-81
2021/06/12 05:01:08;;;;;;;19.07;11.60;;;20.30;61.10;;;;;;4999834;28;20386;-82
2021/06/12 05:03:38;;;;;;;19.17;11.18;;;20.40;59.80;;;;;;4999574;28;20854;-83
2021/06/12 05:06:03;;;;;;;16.38;11.38;;;20.50;58.50;;;;;;5002876;28;20448;-83
2021/06/12 05:08:29;;;;;;;18.40;11.60;;;20.70;56.80;;;;;;5000180;28;20423;-83
2021/06/12 05:10:57;;;;;;;17.90;11.93;;;20.60;57.20;;;;;;4986347;28;20396;-83
2021/06/12 05:13:23;;;;;;;22.93;12.30;;;20.60;56.90;;;;;;4983467;28;20403;-83
2021/06/12 05:15:48;;;;;;;22.00;12.37;;;20.70;56.50;;;;;;4985062;28;20392;-82
2021/06/12 05:18:16;;;;;;;21.10;12.32;;;20.70;56.30;;;;;;4986878;28;20407;-84
2021/06/12 05:20:41;;;;;;;19.38;12.27;;;20.70;56.10;;;;;;4985353;28;20403;-83
2021/06/12 05:23:07;;;;;;;21.90;12.45;;;20.70;56.50;;;;;;5002449;28;20390;-81
2021/06/12 05:25:35;;;;;;;21.35;12.85;;;20.90;54.80;;;;;;5004632;28;20799;-84
2021/06/12 05:28:01;;;;;;;19.85;13.68;;;20.90;55.60;;;;;;5004308;28;20401;-84
2021/06/12 05:30:26;;;;;;;18.90;12.48;;;20.80;56.60;;;;;;5006185;28;20430;-83
2021/06/12 05:32:53;;;;;;;22.13;12.93;;;20.80;56.80;;;;;;4994755;28;20881;-83
2021/06/12 05:35:19;;;;;;;20.08;13.93;;;20.80;56.50;;;;;;5002354;28;20422;-82
2021/06/12 05:37:45;;;;;;;20.63;13.53;;;20.70;57.60;;;;;;5004715;28;20390;-81
2021/06/12 05:40:11;;;;;;;20.63;13.70;;;20.70;58.10;;;;;;5005352;28;20446;-82
2021/06/12 05:42:38;;;;;;;21.25;14.43;;;20.70;57.40;;;;;;5002487;28;20441;-82
2021/06/12 05:45:06;;;;;;;23.23;15.15;;;20.70;57.80;;;;;;4999660;28;20395;-83
2021/06/12 05:47:31;;;;;;;24.48;14.70;;;20.70;58.40;;;;;;4998694;28;20414;-82
2021/06/12 05:49:57;;;;;;;25.33;16.47;;;20.70;58.30;;;;;;5000142;28;20395;-83
2021/06/12 05:52:23;;;;;;;24.33;19.27;;;20.60;57.90;;;;;;5000606;28;20795;-84
2021/06/12 05:54:49;;;;;;;23.13;17.98;;;20.60;56.70;;;;;;5004334;28;20415;-82
2021/06/12 05:57:14;;;;;;;23.20;17.05;;;20.60;58.00;;;;;;5002650;28;20399;-83
2021/06/12 05:59:40;;;;;;;21.37;14.50;;;20.70;56.60;;;;;;5005284;28;20902;-84
2021/06/12 06:02:06;;;;;;;17.80;13.20;;;20.80;54.70;;;;;;4984925;28;20436;-80
2021/06/12 06:04:32;;;;;;;14.40;10.73;;;20.90;54.30;;;;;;5001785;28;20410;-82
2021/06/12 06:06:57;;;;;;;17.10;10.23;;;20.90;51.50;;;;;;5007427;28;20398;-82
2021/06/12 06:09:23;;;;;;;14.13;10.20;;;20.90;52.20;;;;;;4991354;28;20435;-82
2021/06/12 06:11:48;;;;;;;15.10;9.90;;;21.00;52.20;;;;;;4993980;28;20917;-83
2021/06/12 06:14:15;;;;;;;13.10;8.95;;;21.10;50.70;;;;;;5002120;28;20814;-82
2021/06/12 06:16:41;;;;;;;11.67;8.10;;;21.20;49.00;;;;;;5005551;28;20390;-81
2021/06/12 06:19:06;;;;;;;11.40;7.90;;;21.20;48.80;;;;;;5010458;28;20864;-80
2021/06/12 06:21:32;;;;;;;10.55;8.60;;;21.10;49.80;;;;;;5011411;28;20401;-79
2021/06/12 06:23:57;;;;;;;24.30;8.30;;;21.00;50.60;;;;;;5007319;28;20391;-79
2021/06/12 06:26:23;;;;;;;12.47;8.53;;;20.90;51.70;;;;;;4980218;28;20426;-76
2021/06/12 06:28:49;;;;;;;13.32;8.95;;;20.90;51.30;;;;;;4999801;28;20897;-78
2021/06/12 06:31:15;;;;;;;17.60;9.70;;;21.20;48.70;;;;;;4997794;28;20398;-77
2021/06/12 06:33:40;;;;;;;15.05;10.45;;;21.20;49.70;;;;;;4984662;28;20416;-76
2021/06/12 06:36:06;;;;;;;14.87;9.77;;;21.20;49.50;;;;;;4978542;28;20399;-78
2021/06/12 06:38:32;;;;;;;14.30;9.63;;;21.20;49.80;;;;;;4977567;28;20881;-77
2021/06/12 06:40:58;;;;;;;16.63;11.13;;;21.30;49.50;;;;;;4997774;28;20426;-76
2021/06/12 06:43:23;;;;;;;17.05;11.98;;;21.10;50.10;;;;;;4995978;28;20386;-77
2021/06/12 06:45:49;;;;;;;16.87;12.93;;;21.10;51.00;;;;;;4996458;28;20417;-77
2021/06/12 06:48:16;;;;;;;19.37;12.30;;;21.20;50.00;;;;;;4997667;28;20418;-77
2021/06/12 06:50:42;;;;;;;16.40;11.70;;;21.40;49.30;;;;;;4996807;28;20389;-78
2021/06/12 06:53:09;;;;;;;18.65;12.60;;;21.30;49.50;;;;;;4997679;28;20779;-78
2021/06/12 06:55:34;;;;;;;19.58;12.88;;;21.20;50.50;;;;;;4998054;28;20422;-81
2021/06/12 06:58:00;;;;;;;20.92;13.30;;;21.20;50.50;;;;;;4995527;28;20497;-78
2021/06/12 07:00:26;;;;;;;18.30;13.40;;;21.20;51.30;;;;;;4999238;28;20406;-76
2021/06/12 07:02:52;;;;;;;21.60;15.68;;;21.20;51.00;;;;;;4995579;28;20888;-75
2021/06/12 07:05:18;;;;;;;20.20;16.10;;;21.30;50.80;;;;;;4989160;28;20449;-76
2021/06/12 07:07:44;;;;;;;23.75;18.17;;;21.40;49.30;;;;;;4979990;28;20487;-77
2021/06/12 07:10:10;;;;;;;28.05;18.83;;;21.20;49.20;;;;;;4989225;28;20452;-76
2021/06/12 07:12:36;;;;;;;28.50;22.13;;;21.10;50.10;;;;;;4995631;28;20406;-74
2021/06/12 07:15:02;;;;;;;29.67;21.73;;;20.90;51.50;;;;;;4994690;28;20423;-76
2021/06/12 07:17:28;;;;;;;30.50;23.17;;;20.90;51.90;;;;;;4997419;28;20413;-76
2021/06/12 07:19:54;;;;;;;31.90;23.58;;;20.90;51.40;;;;;;4997242;28;20458;-74
2021/06/12 07:22:19;;;;;;;32.08;23.98;;;20.90;51.50;;;;;;4996481;28;20756;-77
2021/06/12 07:24:45;;;;;;;31.42;22.73;;;20.80;51.50;;;;;;4994202;28;20762;-77
2021/06/12 07:27:12;;;;;;;33.80;24.00;;;21.00;51.60;;;;;;4994647;28;20402;-77
2021/06/12 07:29:38;;;;;;;32.65;24.17;;;20.80;51.60;;;;;;4993888;28;20412;-76
2021/06/12 07:32:05;;;;;;;35.83;25.25;;;20.60;53.30;;;;;;4977087;28;20400;-75
2021/06/12 07:34:30;;;;;;;32.85;22.98;;;20.70;52.80;;;;;;4994284;28;20411;-77
2021/06/12 07:36:56;;;;;;;30.00;25.20;;;21.00;50.20;;;;;;4997991;28;20397;-77
2021/06/12 07:39:21;;;;;;;32.50;25.70;;;21.10;48.10;;;;;;5000715;28;20410;-78
2021/06/12 07:41:47;;;;;;;31.17;26.13;;;21.10;48.20;;;;;;4989200;28;20430;-78
2021/06/12 07:44:13;;;;;;;34.45;25.63;;;21.10;47.80;;;;;;5003382;28;20402;-78
2021/06/12 07:46:38;;;;;;;32.00;25.90;;;21.10;48.20;;;;;;5004466;28;20410;-79
2021/06/12 07:49:04;;;;;;;36.50;26.33;;;21.30;47.00;;;;;;5002238;28;20780;-78
2021/06/12 07:51:33;;;;;;;36.00;27.48;;;21.30;47.00;;;;;;5000886;28;20767;-78
2021/06/12 07:54:00;;;;;;;33.13;26.85;;;21.10;48.00;;;;;;5002790;28;20410;-78
2021/06/12 07:56:25;;;;;;;36.90;28.00;;;21.10;47.90;;;;;;4999512;28;20419;-77
2021/06/12 07:58:51;;;;;;;34.80;28.37;;;21.00;48.20;;;;;;5001819;28;20387;-78
2021/06/12 08:01:17;;;;;;;34.80;27.80;;;21.00;49.20;;;;;;5001541;28;20408;-79
2021/06/12 08:03:42;;;;;;;34.95;26.92;;;21.00;48.50;;;;;;5001700;28;20433;-78
2021/06/12 08:06:08;;;;;;;34.70;26.92;;;21.00;48.40;;;;;;5003194;28;20474;-78
2021/06/12 08:08:33;;;;;;;33.00;26.30;;;21.00;49.30;;;;;;4999458;28;20400;-77
2021/06/12 08:10:59;;;;;;;34.88;27.55;;;20.80;49.60;;;;;;4992373;28;20453;-78
2021/06/12 08:13:25;;;;;;;34.90;26.90;;;20.80;49.80;;;;;;5005871;28;20383;-79
2021/06/12 08:15:51;;;;;;;31.70;26.20;;;20.80;50.20;;;;;;5004159;28;20941;-79
2021/06/12 08:18:16;;;;;;;38.03;28.03;;;21.00;50.20;;;;;;5003129;28;20389;-78
2021/06/12 08:20:42;;;;;;;35.67;27.33;;;20.90;49.60;;;;;;4998640;28;20408;-79
2021/06/12 08:23:08;;;;;;;34.35;27.20;;;20.80;50.30;;;;;;4981090;28;20394;-75
2021/06/12 08:25:34;;;;;;;34.30;27.40;;;20.60;51.00;;;;;;5001402;28;20410;-78
2021/06/12 08:28:02;;;;;;;37.30;28.83;;;20.40;53.40;;;;;;5005978;28;20478;-77
2021/06/12 08:30:29;;;;;;;34.63;28.05;;;20.30;53.90;;;;;;5011508;28;20397;-78
2021/06/12 08:32:56;;;;;;;43.22;28.05;;;20.30;53.90;;;;;;5001875;28;20416;-80
2021/06/12 08:35:21;;;;;;;37.75;28.30;;;20.30;52.90;;;;;;4995285;28;20418;-77
2021/06/12 08:37:48;;;;;;;33.50;27.88;;;20.20;53.40;;;;;;4996787;28;20429;-76
2021/06/12 08:40:14;;;;;;;35.20;27.50;;;20.30;54.10;;;;;;4994640;28;20517;-78
2021/06/12 08:42:39;;;;;;;35.72;28.00;;;20.20;54.70;;;;;;4995374;28;20406;-76
2021/06/12 08:45:06;;;;;;;37.63;29.70;;;20.20;55.30;;;;;;4995528;28;20437;-83
2021/06/12 08:47:35;;;;;;;37.90;27.38;;;20.30;54.90;;;;;;4979140;28;20470;-78
2021/06/12 08:50:04;;;;;;;37.30;27.77;;;20.50;54.00;;;;;;4998205;28;20397;-80
2021/06/12 08:52:29;;;;;;;39.47;28.90;;;20.70;52.40;;;;;;5010558;23;20945;-70
2021/06/12 08:54:55;;;;;;;34.10;26.53;;;21.00;50.60;;;;;;4991400;28;20419;-70
2021/06/12 08:57:20;;;;;;;34.03;26.60;;;21.10;48.40;;;;;;4980659;28;20396;-70
2021/06/12 08:59:46;;;;;;;34.70;26.05;;;21.40;46.20;;;;;;4991888;28;20411;-70
2021/06/12 09:02:12;;;;;;;33.67;25.63;;;21.70;44.10;;;;;;4992191;28;20391;-69
2021/06/12 09:04:43;;;;;;;34.10;25.00;;;22.00;41.60;;;;;;4991578;28;20480;-71
2021/06/12 09:07:29;;;;;;;30.77;23.20;;;22.20;40.60;;;;;;4991276;28;20743;-70
2021/06/12 09:09:58;;;;;;;29.02;21.45;;;22.30;39.60;;;;;;4992242;28;20394;-71
2021/06/12 09:12:44;;;;;;;26.63;21.23;;;22.80;37.70;;;;;;4991605;28;20391;-70
2021/06/12 09:15:12;;;;;;;24.95;18.55;;;23.20;35.70;;;;;;4991811;28;20407;-70
2021/06/12 09:17:45;;;;;;;23.63;19.35;;;23.40;33.20;;;;;;4992460;28;20386;-70
2021/06/12 09:20:15;;;;;;;24.60;18.42;;;23.60;33.70;;;;;;4991895;28;20410;-70
2021/06/12 09:22:41;;;;;;;26.27;20.30;;;23.50;33.90;;;;;;4991912;28;20401;-72
2021/06/12 09:25:07;;;;;;;23.23;18.80;;;23.60;33.60;;;;;;4991949;28;20395;-69
2021/06/12 09:27:32;;;;;;;25.65;19.48;;;23.70;32.00;;;;;;4992091;28;20391;-70
2021/06/12 09:30:03;;;;;;;25.17;20.25;;;23.50;33.00;;;;;;4992699;28;20382;-70
2021/06/12 09:32:31;;;;;;;23.50;18.88;;;23.40;34.00;;;;;;4993142;28;20390;-69
2021/06/12 09:35:06;;;;;;;22.80;19.20;;;23.20;34.60;;;;;;4994268;28;20414;-72
2021/06/12 09:37:33;;;;;;;24.90;19.60;;;23.10;34.60;;;;;;4991744;28;20733;-69
2021/06/12 09:40:14;;;;;;;26.13;20.70;;;23.10;34.50;;;;;;4991691;28;20397;-71
2021/06/12 09:42:45;;;;;;;26.38;19.13;;;23.00;35.00;;;;;;4992416;28;20751;-72
2021/06/12 09:45:16;;;;;;;30.73;21.33;;;22.90;36.10;;;;;;4991837;28;20409;-72
2021/06/12 09:47:42;;;;;;;28.60;20.67;;;22.90;36.50;;;;;;4992081;28;20398;-70
2021/06/12 09:50:10;;;;;;;33.70;21.73;;;22.70;36.00;;;;;;4991699;28;20401;-70
2021/06/12 09:52:51;;;;;;;34.38;22.08;;;22.50;37.40;;;;;;4991462;28;20405;-70
2021/06/12 09:55:26;;;;;;;30.52;21.25;;;22.90;36.70;;;;;;4991094;28;20414;-71
2021/06/12 09:57:52;;;;;;;29.25;21.00;;;23.10;35.20;;;;;;4991823;28;20779;-71
2021/06/12 10:00:27;;;;;;;28.47;21.90;;;23.10;35.50;;;;;;4991977;28;20397;-73
2021/06/12 10:02:53;;;;;;;23.88;20.15;;;23.10;34.70;;;;;;4990668;28;20395;-71
2021/06/12 10:05:18;;;;;;;31.33;22.90;;;23.00;34.50;;;;;;4991090;28;20401;-70
2021/06/12 10:07:44;;;;;;;31.25;22.67;;;23.30;33.90;;;;;;4991082;28;20401;-71
2021/06/12 10:10:13;;;;;;;28.10;20.90;;;23.80;31.30;;;;;;4991169;28;20406;-70
2021/06/12 10:12:40;;;;;;;27.63;19.55;;;24.20;30.30;;;;;;4990969;28;20390;-69
2021/06/12 10:15:08;;;;;;;30.35;21.88;;;24.30;28.70;;;;;;4991224;28;20912;-70
2021/06/12 10:17:41;;;;;;;26.30;20.17;;;24.10;29.50;;;;;;4991770;28;20449;-71
2021/06/12 10:20:08;;;;;;;31.83;22.35;;;23.40;30.70;;;;;;4972174;28;20412;-70
2021/06/12 10:22:35;;;;;;;31.70;20.17;;;23.00;32.90;;;;;;4979841;28;20532;-69
2021/06/12 10:25:02;;;;;;;34.50;23.45;;;22.70;34.30;;;;;;4990820;28;20432;-70
2021/06/12 10:27:29;;;;;;;35.53;22.83;;;22.30;37.60;;;;;;4991207;28;20409;-70
2021/06/12 10:29:55;;;;;;;36.42;24.02;;;22.60;36.50;;;;;;4989779;28;20775;-70
2021/06/12 10:32:21;;;;;;;32.58;23.25;;;23.10;34.00;;;;;;4989165;28;20896;-71
2021/06/12 10:34:51;;;;;;;33.40;22.65;;;23.20;32.30;;;;;;4989936;28;20427;-72
2021/06/12 10:37:17;;;;;;;31.90;22.67;;;23.50;32.00;;;;;;4984589;28;20941;-70
2021/06/12 10:39:43;;;;;;;31.25;21.00;;;23.70;30.50;;;;;;4991035;28;20405;-71
2021/06/12 10:42:25;;;;;;;35.73;20.80;;;24.00;30.60;;;;;;5006910;28;20409;-70
2021/06/12 10:44:53;;;;;;;33.55;22.33;;;24.10;28.50;;;;;;5010404;28;20788;-72
2021/06/12 10:47:49;;;;;;;33.23;24.17;;;24.40;29.20;;;;;;5009971;28;20865;-70
2021/06/12 10:50:24;;;;;;;31.50;21.50;;;24.80;26.80;;;;;;5010479;28;20393;-69
2021/06/12 10:52:50;;;;;;;34.28;22.08;;;24.90;26.50;;;;;;4997945;28;20410;-69
2021/06/12 10:55:51;;;;;;;34.03;23.10;;;24.90;24.70;;;;;;4992257;28;20414;-70
2021/06/12 10:58:35;;;;;;;31.42;21.67;;;24.60;25.50;;;;;;4994630;28;20489;-69
2021/06/12 11:01:16;;;;;;;28.88;19.95;;;24.40;25.30;;;;;;4994418;28;20374;-69
2021/06/12 11:06:42;;;;;;;33.42;23.30;;;23.90;28.00;;;;;;4994195;28;20397;-69
2021/06/12 11:09:14;;;;;;;34.75;23.67;;;23.80;27.70;;;;;;4994048;28;20387;-69
2021/06/12 11:11:54;;;;;;;32.70;23.30;;;23.70;27.80;;;;;;4993672;28;20421;-71
2021/06/12 11:14:22;;;;;;;31.65;22.40;;;23.80;27.40;;;;;;4993597;28;20883;-71
2021/06/12 11:17:09;;;;;;;33.25;23.70;;;24.40;25.90;;;;;;4993790;28;20431;-71
2021/06/12 11:19:49;;;;;;;27.67;20.90;;;24.70;24.30;;;;;;4993132;28;20390;-72
2021/06/12 11:22:37;;;;;;;31.42;21.55;;;24.70;23.90;;;;;;4993287;28;20402;-71
2021/06/12 11:25:26;;;;;;;34.97;24.40;;;24.40;24.60;;;;;;4993532;28;20378;-72
2021/06/12 11:27:53;;;;;;;36.00;24.35;;;23.90;27.00;;;;;;4991935;28;20405;-72
2021/06/12 11:30:19;;;;;;;32.90;22.90;;;23.70;28.30;;;;;;4993733;28;20387;-72
2021/06/12 11:32:59;;;;;;;34.67;24.08;;;23.60;28.20;;;;;;4992846;28;20794;-72
2021/06/12 11:35:53;;;;;;;38.78;25.45;;;23.40;29.00;;;;;;4993641;28;20414;-71
2021/06/12 11:38:32;;;;;;;37.10;24.75;;;23.10;30.20;;;;;;4976236;28;20422;-71
2021/06/12 11:41:04;;;;;;;41.60;25.60;;;22.90;31.50;;;;;;4975239;28;20398;-72
2021/06/12 11:43:40;;;;;;;40.97;25.40;;;23.10;30.70;;;;;;4977662;28;20457;-72
2021/06/12 11:46:07;;;;;;;38.92;26.00;;;23.20;30.00;;;;;;4993383;28;20448;-72
2021/06/12 11:48:42;;;;;;;36.45;24.75;;;23.50;29.20;;;;;;4993282;28;20391;-72
2021/06/12 11:51:21;;;;;;;38.00;23.85;;;23.80;28.50;;;;;;4993701;28;20851;-73
2021/06/12 11:54:26;;;;;;;35.58;23.63;;;24.20;27.30;;;;;;4992576;28;20425;-72
2021/06/12 11:56:55;;;;;;;33.70;22.42;;;24.40;25.70;;;;;;4931224;28;20541;-72
2021/06/12 11:59:22;;;;;;;24.38;17.65;;;24.50;24.90;;;;;;4974254;28;20392;-71
2021/06/12 12:02:00;;;;;;;21.35;14.90;;;24.50;22.90;;;;;;4973914;28;20455;-73
2021/06/12 12:04:31;;;;;;;17.13;13.32;;;24.70;20.80;;;;;;4973579;28;20396;-71
2021/06/12 12:06:57;;;;;;;24.13;14.20;;;25.00;21.40;;;;;;4976845;28;20438;-69
2021/06/12 12:09:47;;;;;;;13.25;8.85;;;25.10;20.70;;;;;;4992609;28;20436;-68
2021/06/12 12:12:17;;;;;;;13.35;7.35;;;24.10;18.90;;;;;;4987398;28;20759;-69
2021/06/12 12:14:44;;;;;;;9.65;6.60;;;23.60;20.50;;;;;;4996187;28;20417;-70
2021/06/12 12:17:29;;;;;;;11.25;6.03;;;23.00;20.30;;;;;;4995309;28;20903;-70
2021/06/12 12:20:05;;;;;;;10.13;6.78;;;22.60;21.60;;;;;;4994091;28;20402;-69
2021/06/12 12:22:46;;;;;;;9.88;6.35;;;22.70;21.10;;;;;;4993198;28;20433;-69
2021/06/12 12:25:13;;;;;;;7.57;5.30;;;22.70;20.60;;;;;;4991539;28;20771;-69
2021/06/12 12:27:39;;;;;;;11.93;5.15;;;22.70;19.50;;;;;;4992772;28;20422;-70
2021/06/12 12:30:08;;;;;;;10.83;6.50;;;22.90;19.00;;;;;;4992430;28;20460;-69
2021/06/12 12:32:33;;;;;;;7.20;4.80;;;23.10;18.30;;;;;;4992371;28;20398;-71
2021/06/12 12:35:25;;;;;;;12.93;4.80;;;23.40;17.80;;;;;;4992841;28;20482;-70
2021/06/12 12:37:51;;;;;;;9.32;5.32;;;23.90;16.90;;;;;;4972125;28;20392;-70